DABB/AAE METAR and TAF weather

Enter ICAO airport designator
Station Type Date Time Source
DABB METAR 2019/10/16 19:00 UTC NOAA

DABB 161900Z 07005KT CAVOK 19/15 Q1019


Station Type Date Time Source
DABB Decoded METAR 2019/10/16 19:00 UTC NOAA

Annaba, Algeria (DABB) 36-50N 007-49E 4M
Oct 16, 2019 - 03:00 PM EDT / 2019.10.16 1900 UTC
Wind: from the ENE (070 degrees) at 6 MPH (5 KT):0
Visibility: greater than 7 mile(s):0
Temperature: 66 F (19 C)
Dew Point: 59 F (15 C)
Relative Humidity: 77%
Pressure (altimeter): 30.09 in. Hg (1019 hPa)
ob: DABB 161900Z 07005KT CAVOK 19/15 Q1019
cycle: 19

Station Type Date Time Source
DABB TAF 2019/10/16 18:57 UTC NOAA

TAF TAF DABB 161700Z 1618/1718 02008KT 9999 FEW023 PROB30
TEMPO 1714/1718 FEW020TCU

Example: see airport list